Accueil
METAR-TAF:

METAR-TAF

Aéroports :

Aéroport de Weeze

Weeze, Allemagne

latitude: 51-36-09N, longitude: 006-08-32E, altitude: 32 m

Observation

Le bulletin a été fait il y a 27 minutes, à 04:20 UTC
Vent 7 kt de nord-est, variant entre nord et est
Température 5°C
Humidité 93%
Pression 1023 hPa
Visibilité 10 km ou plus
Nuages épars à une hauteur de 1600 ft
Nuages fragmentés à une hauteur de 2400 ft

METAR: EDLV 190420Z 05007KT 360V080 9999 SCT016 BKN024 05/04 Q1023

Heure: 05:47 (04:47 UTC)

Prévision

Le bulletin a été fait il y a 27 minutes, à 04:20 UTC
Prévision valable du 19 à 05 UTC au 19 à 24 UTC
Vent 8 kt de est/nord-est
Visibilité 10 km ou plus
Nuages fragmentés à une hauteur de 2500 ft
Probabilité 30% :
Temporairement
du 19 à 05 UTC au 19 à 09 UTC
Nuages fragmentés à une hauteur de 1200 ft

TAF: EDLV 190420Z 1905/1924 06008KT 9999 BKN025 PROB30 TEMPO 1905/1909 BKN012

Observations et prévisions météorologiques de plus de 4000 aéroports (messages METAR et TAF).

Les stations disponibles sont représentées par des disques jaunes et rouges sur la carte.

Passer la souris dessus pour voir le nom de la station.

Cliquer dessus pour voir les observations et prévisions météorologiques.

Pour changer de carte: cliquez sur les boutons verts avec une croix noire pour zoomer, sur le bouton vert avec un tiret pour effectuer un zoom arrière, ou sur les flèches vertes pour les cartes adjacentes.


METAR-TAF: